createdAt,value
2018-01-11T00:00:06.676Z,100190.56
2018-01-11T00:01:09.148Z,100188.92
2018-01-11T00:02:11.666Z,100189.33
2018-01-11T00:03:14.120Z,100192.25
2018-01-11T00:04:16.605Z,100192.02
2018-01-11T00:05:19.072Z,100185.70
2018-01-11T00:06:21.568Z,100187.48
2018-01-11T00:07:24.041Z,100191.04
2018-01-11T00:08:26.516Z,100186.91
2018-01-11T00:09:28.979Z,100186.34
2018-01-11T00:10:31.439Z,100187.72
2018-01-11T00:11:33.918Z,100194.42
2018-01-11T00:12:36.388Z,100187.15
2018-01-11T00:13:38.851Z,100189.49
2018-01-11T00:14:41.306Z,100191.04
2018-01-11T00:15:43.769Z,100190.64
2018-01-11T00:16:46.241Z,100193.39
2018-01-11T00:17:48.704Z,100192.58
2018-01-11T00:18:51.203Z,100195.91
2018-01-11T00:19:53.667Z,100194.53
2018-01-11T00:20:56.147Z,100191.55
2018-01-11T00:21:58.610Z,100190.57
2018-01-11T00:23:01.092Z,100192.92
2018-01-11T00:24:03.564Z,100190.17
2018-01-11T00:25:06.045Z,100192.34
2018-01-11T00:26:08.520Z,100194.53
2018-01-11T00:27:10.991Z,100189.03
2018-01-11T00:28:13.464Z,100190.97
2018-01-11T00:29:15.918Z,100192.34
2018-01-11T00:30:18.400Z,100200.60
2018-01-11T00:31:20.877Z,100194.30
2018-01-11T00:32:23.334Z,100192.92
2018-01-11T00:33:25.808Z,100193.48
2018-01-11T00:34:28.266Z,100193.22
2018-01-11T00:35:30.725Z,100192.25
2018-01-11T00:36:33.182Z,100194.59
2018-01-11T00:37:35.656Z,100186.92
2018-01-11T00:38:38.128Z,100192.02
2018-01-11T00:39:40.605Z,100190.64
2018-01-11T00:40:43.108Z,100189.44
2018-01-11T00:41:45.570Z,100187.83
2018-01-11T00:42:48.045Z,100186.45
2018-01-11T00:43:50.506Z,100186.05
2018-01-11T00:44:53.007Z,100197.62
2018-01-11T00:45:55.462Z,100194.23
2018-01-11T00:46:57.918Z,100187.92
2018-01-11T00:48:00.374Z,100187.92
2018-01-11T00:49:02.840Z,100187.29
2018-01-11T00:50:05.310Z,100187.86
2018-01-11T00:51:07.766Z,100188.03
2018-01-11T00:52:10.229Z,100185.27
2018-01-11T00:53:12.708Z,100185.84
2018-01-11T00:54:15.166Z,100186.25
2018-01-11T00:55:17.626Z,100187.05
2018-01-11T00:56:20.096Z,100183.97
2018-01-11T00:57:22.581Z,100193.02
2018-01-11T00:58:25.064Z,100184.03
2018-01-11T00:59:27.533Z,100181.69
2018-01-11T01:00:30.009Z,100184.67
2018-01-11T01:01:32.476Z,100182.49
2018-01-11T01:02:34.934Z,100179.74
2018-01-11T01:03:37.398Z,100182.49
2018-01-11T01:04:39.926Z,100182.26
2018-01-11T01:05:42.372Z,100178.87
2018-01-11T01:06:44.841Z,100181.38
2018-01-11T01:07:47.312Z,100185.52
2018-01-11T01:08:49.782Z,100187.79
2018-01-11T01:09:52.260Z,100191.28
2018-01-11T01:10:54.737Z,100189.84
2018-01-11T01:11:57.190Z,100185.24
2018-01-11T01:12:59.656Z,100191.95
2018-01-11T01:14:02.114Z,100190.34
2018-01-11T01:15:04.570Z,100184.98
2018-01-11T01:16:07.049Z,100186.52
2018-01-11T01:17:09.534Z,100186.69
2018-01-11T01:18:11.986Z,100190.81
2018-01-11T01:19:14.442Z,100193.39
2018-01-11T01:20:16.911Z,100188.86
2018-01-11T01:21:19.370Z,100194.77
2018-01-11T01:22:21.860Z,100194.59
2018-01-11T01:23:24.318Z,100197.92
2018-01-11T01:24:26.795Z,100203.42
2018-01-11T01:25:29.268Z,100202.61
2018-01-11T01:26:31.734Z,100203.75
2018-01-11T01:27:34.219Z,100203.75
2018-01-11T01:28:36.690Z,100206.27
2018-01-11T01:29:39.146Z,100209.02
2018-01-11T01:30:41.609Z,100209.02
2018-01-11T01:31:44.062Z,100212.57
2018-01-11T01:32:46.539Z,100211.20
2018-01-11T01:33:49.004Z,100216.13
2018-01-11T01:34:51.462Z,100219.45
2018-01-11T01:35:53.928Z,100216.30
2018-01-11T01:36:56.400Z,100220.83
2018-01-11T01:37:58.878Z,100222.77
2018-01-11T01:39:01.330Z,100224.55
2018-01-11T01:40:03.804Z,100225.92
2018-01-11T01:41:06.276Z,100226.09
2018-01-11T01:42:08.742Z,100226.25
2018-01-11T01:43:11.218Z,100226.42
2018-01-11T01:44:13.678Z,100229.17
2018-01-11T01:45:16.134Z,100230.95
2018-01-11T01:46:18.608Z,100232.56
2018-01-11T01:47:21.084Z,100229.64
2018-01-11T01:48:35.277Z,100239.27
2018-01-11T01:49:37.732Z,100233.13
2018-01-11T01:50:40.194Z,100229.00
2018-01-11T01:51:42.668Z,100237.82
2018-01-11T01:52:45.127Z,100234.67
2018-01-11T01:53:47.592Z,100242.92
2018-01-11T01:54:50.059Z,100236.78
2018-01-11T01:55:52.536Z,100233.80
2018-01-11T01:56:54.994Z,100241.81
2018-01-11T01:57:57.451Z,100242.20
2018-01-11T01:58:59.916Z,100239.22
2018-01-11T02:00:02.454Z,100240.36
2018-01-11T02:01:04.910Z,100242.70
2018-01-11T02:02:07.384Z,100244.25
2018-01-11T02:03:09.842Z,100240.13
2018-01-11T02:04:12.297Z,100243.45
2018-01-11T02:05:14.773Z,100239.66
2018-01-11T02:06:17.230Z,100241.02
2018-01-11T02:07:19.695Z,100239.82
2018-01-11T02:08:22.162Z,100245.05
2018-01-11T02:09:24.622Z,100249.34
2018-01-11T02:10:27.087Z,100247.56
2018-01-11T02:11:29.547Z,100253.46
2018-01-11T02:12:32.022Z,100248.94
2018-01-11T02:13:34.495Z,100249.67
2018-01-11T02:14:36.949Z,100252.83
2018-01-11T02:15:39.410Z,100250.08
2018-01-11T02:16:41.870Z,100252.02
2018-01-11T02:17:44.326Z,100255.34
2018-01-11T02:18:46.789Z,100251.78
2018-01-11T02:19:49.250Z,100253.73
2018-01-11T02:20:51.715Z,100259.22
2018-01-11T02:21:54.174Z,100259.22
2018-01-11T02:22:56.648Z,100252.52
2018-01-11T02:23:59.125Z,100255.67
2018-01-11T02:25:01.596Z,100254.05
2018-01-11T02:26:04.049Z,100249.70
2018-01-11T02:27:06.525Z,100254.39
2018-01-11T02:28:08.986Z,100247.68
2018-01-11T02:29:11.462Z,100247.52
2018-01-11T02:30:13.923Z,100252.61
2018-01-11T02:31:16.387Z,100255.77
2018-01-11T02:32:18.872Z,100254.95
2018-01-11T02:33:21.331Z,100251.80
2018-01-11T02:34:23.836Z,100249.63
2018-01-11T02:35:26.313Z,100255.69
2018-01-11T02:36:28.817Z,100255.29
2018-01-11T02:37:31.280Z,100261.19
2018-01-11T02:38:33.761Z,100255.69
2018-01-11T02:39:36.239Z,100261.19
2018-01-11T02:40:38.709Z,100263.13
2018-01-11T02:41:41.175Z,100264.67
2018-01-11T02:42:43.644Z,100259.17
2018-01-11T02:43:46.101Z,100260.55
2018-01-11T02:44:48.597Z,100264.67
2018-01-11T02:45:51.058Z,100261.12
2018-01-11T02:46:53.531Z,100262.89
2018-01-11T02:47:56.004Z,100267.42
2018-01-11T02:48:58.472Z,100265.08
2018-01-11T02:50:00.973Z,100261.36
2018-01-11T02:51:03.434Z,100264.67
2018-01-11T02:52:05.912Z,100268.23
2018-01-11T02:53:08.366Z,100266.85
2018-01-11T02:54:10.822Z,100269.03
2018-01-11T02:55:13.306Z,100268.63
2018-01-11T02:56:15.765Z,100264.91
2018-01-11T02:57:18.223Z,100265.08
2018-01-11T02:58:20.716Z,100272.35
2018-01-11T02:59:23.184Z,100267.83
2018-01-11T03:00:29.468Z,100272.19
2018-01-11T03:01:31.930Z,100271.95
2018-01-11T03:02:34.404Z,100269.77
2018-01-11T03:03:36.880Z,100273.32
2018-01-11T03:04:39.352Z,100271.14
2018-01-11T03:05:41.833Z,100277.20
2018-01-11T03:06:44.294Z,100271.71
2018-01-11T03:07:46.749Z,100275.19
2018-01-11T03:08:49.224Z,100271.47
2018-01-11T03:09:51.712Z,100275.59
2018-01-11T03:10:54.190Z,100274.05
2018-01-11T03:11:56.645Z,100275.67
2018-01-11T03:12:59.099Z,100274.70
2018-01-11T03:14:01.572Z,100273.32
2018-01-11T03:15:04.027Z,100274.70
2018-01-11T03:16:06.516Z,100271.37
2018-01-11T03:17:08.969Z,100274.70
2018-01-11T03:18:11.426Z,100277.84
2018-01-11T03:19:13.896Z,100276.64
2018-01-11T03:20:16.368Z,100276.80
2018-01-11T03:21:18.868Z,100279.95
2018-01-11T03:22:21.340Z,100279.95
2018-01-11T03:23:23.797Z,100276.88
2018-01-11T03:24:26.258Z,100279.94
2018-01-11T03:25:28.748Z,100281.71
2018-01-11T03:26:31.240Z,100279.53
2018-01-11T03:27:33.704Z,100277.92
2018-01-11T03:28:36.161Z,100277.12
2018-01-11T03:29:38.815Z,100278.89
2018-01-11T03:30:41.289Z,100282.05
2018-01-11T03:31:43.751Z,100283.58
2018-01-11T03:32:46.249Z,100283.58
2018-01-11T03:33:48.700Z,100282.38
2018-01-11T03:34:51.153Z,100283.34
2018-01-11T03:35:53.613Z,100282.70
2018-01-11T03:36:56.166Z,100285.22
2018-01-11T03:37:58.660Z,100283.84
2018-01-11T03:39:01.128Z,100285.55
2018-01-11T03:40:03.803Z,100286.52
2018-01-11T03:41:06.280Z,100282.97
2018-01-11T03:42:08.765Z,100286.66
2018-01-11T03:43:11.230Z,100283.27
2018-01-11T03:44:13.687Z,100282.45
2018-01-11T03:45:16.154Z,100284.00
2018-01-11T03:46:18.624Z,100288.52
2018-01-11T03:47:21.079Z,100279.23
2018-01-11T03:48:23.533Z,100281.58
2018-01-11T03:49:26.020Z,100283.12
2018-01-11T03:50:28.485Z,100288.61
2018-01-11T03:51:30.942Z,100286.84
2018-01-11T03:52:33.421Z,100286.77
2018-01-11T03:53:35.896Z,100281.44
2018-01-11T03:54:38.358Z,100283.21
2018-01-11T03:55:40.902Z,100284.98
2018-01-11T03:56:43.363Z,100282.88
2018-01-11T03:57:45.836Z,100282.31
2018-01-11T03:58:48.317Z,100280.13
2018-01-11T03:59:50.792Z,100281.67
2018-01-11T04:00:53.246Z,100281.67
2018-01-11T04:01:55.702Z,100280.06
2018-01-11T04:02:58.192Z,100277.47
2018-01-11T04:04:00.648Z,100284.91
2018-01-11T04:05:03.124Z,100284.27
2018-01-11T04:06:05.601Z,100290.34
2018-01-11T04:07:08.058Z,100290.50
2018-01-11T04:08:10.523Z,100290.66
2018-01-11T04:09:12.992Z,100289.05
2018-01-11T04:10:15.468Z,100287.28
2018-01-11T04:11:17.930Z,100286.07
2018-01-11T04:12:20.400Z,100287.98
2018-01-11T04:13:22.854Z,100288.55
2018-01-11T04:14:25.328Z,100291.70
2018-01-11T04:15:27.790Z,100286.77
2018-01-11T04:16:30.254Z,100295.02
2018-01-11T04:17:32.728Z,100291.46
2018-01-11T04:18:35.186Z,100293.41
2018-01-11T04:19:37.660Z,100293.00
2018-01-11T04:20:40.119Z,100296.48
2018-01-11T04:21:42.606Z,100299.23
2018-01-11T04:22:45.070Z,100299.39
2018-01-11T04:23:47.527Z,100302.95
2018-01-11T04:24:50.001Z,100298.02
2018-01-11T04:25:52.463Z,100293.66
2018-01-11T04:26:54.960Z,100296.80
2018-01-11T04:27:57.434Z,100300.36
2018-01-11T04:28:59.890Z,100297.05
2018-01-11T04:30:02.373Z,100300.84
2018-01-11T04:31:04.852Z,100293.97
2018-01-11T04:32:07.310Z,100300.44
2018-01-11T04:33:09.788Z,100294.94
2018-01-11T04:34:12.268Z,100304.56
2018-01-11T04:35:14.718Z,100302.21
2018-01-11T04:36:17.169Z,100299.87
2018-01-11T04:37:19.630Z,100298.90
2018-01-11T04:38:22.176Z,100307.30
2018-01-11T04:39:24.658Z,100306.91
2018-01-11T04:40:27.132Z,100308.04
2018-01-11T04:41:29.590Z,100309.41
2018-01-11T04:42:32.067Z,100308.61
2018-01-11T04:43:34.536Z,100309.73
2018-01-11T04:44:36.998Z,100314.83
2018-01-11T04:45:39.458Z,100317.17
2018-01-11T04:46:41.922Z,100321.30
2018-01-11T04:47:44.404Z,100319.52
2018-01-11T04:48:46.866Z,100322.84
2018-01-11T04:49:49.323Z,100327.53
2018-01-11T04:50:51.796Z,100325.75
2018-01-11T04:51:54.251Z,100326.72
2018-01-11T04:52:56.719Z,100326.31
2018-01-11T04:53:59.196Z,100325.34
2018-01-11T04:55:01.856Z,100326.31
2018-01-11T04:56:04.326Z,100329.06
2018-01-11T04:57:06.819Z,100326.88
2018-01-11T04:58:09.277Z,100326.48
2018-01-11T04:59:11.735Z,100327.85
2018-01-11T05:00:14.189Z,100328.83
2018-01-11T05:01:16.666Z,100322.77
2018-01-11T05:02:19.122Z,100328.83
2018-01-11T05:03:21.578Z,100328.42
2018-01-11T05:04:24.048Z,100326.56
2018-01-11T05:05:26.515Z,100331.25
2018-01-11T05:06:28.974Z,100335.37
2018-01-11T05:07:31.448Z,100337.89
2018-01-11T05:08:33.904Z,100339.42
2018-01-11T05:09:36.362Z,100339.42
2018-01-11T05:10:38.836Z,100338.62
2018-01-11T05:11:41.315Z,100344.11
2018-01-11T05:12:43.778Z,100341.09
2018-01-11T05:13:46.256Z,100342.06
2018-01-11T05:14:48.718Z,100347.96
2018-01-11T05:15:51.192Z,100346.75
2018-01-11T05:16:53.660Z,100346.34
2018-01-11T05:17:56.134Z,100348.69
2018-01-11T05:18:58.594Z,100350.47
2018-01-11T05:20:01.053Z,100348.13
2018-01-11T05:21:03.514Z,100351.68
2018-01-11T05:22:05.969Z,100350.88
2018-01-11T05:23:08.430Z,100347.72
2018-01-11T05:24:10.886Z,100350.88
2018-01-11T05:25:13.354Z,100354.99
2018-01-11T05:26:15.829Z,100361.30
2018-01-11T05:27:18.302Z,100357.73
2018-01-11T05:28:20.775Z,100352.25
2018-01-11T05:29:23.253Z,100359.38
2018-01-11T05:30:25.729Z,100360.59
2018-01-11T05:31:28.190Z,100354.53
2018-01-11T05:32:30.689Z,100356.88
2018-01-11T05:33:33.160Z,100359.22
2018-01-11T05:34:35.645Z,100362.37
2018-01-11T05:35:38.128Z,100360.59
2018-01-11T05:36:40.585Z,100363.07
2018-01-11T05:37:43.051Z,100365.02
2018-01-11T05:38:45.511Z,100370.10
2018-01-11T05:39:47.975Z,100370.27
2018-01-11T05:40:50.434Z,100369.05
2018-01-11T05:41:52.908Z,100371.23
2018-01-11T05:42:55.372Z,100372.20
2018-01-11T05:43:57.844Z,100375.36
2018-01-11T05:45:00.306Z,100373.58
2018-01-11T05:46:02.780Z,100374.72
2018-01-11T05:47:05.246Z,100380.38
2018-01-11T05:48:08.050Z,100378.03
2018-01-11T05:49:10.506Z,100381.50
2018-01-11T05:50:12.980Z,100382.87
2018-01-11T05:51:15.441Z,100379.08
2018-01-11T05:52:17.917Z,100379.65
2018-01-11T05:53:20.382Z,100376.50
2018-01-11T05:54:22.848Z,100379.98
2018-01-11T05:55:25.326Z,100384.66
2018-01-11T05:56:27.844Z,100378.93
2018-01-11T05:57:30.344Z,100384.42
2018-01-11T05:58:32.798Z,100390.08
2018-01-11T05:59:35.273Z,100391.58
2018-01-11T06:00:37.748Z,100392.55
2018-01-11T06:01:40.928Z,100393.52
2018-01-11T06:02:43.811Z,100396.43
2018-01-11T06:03:46.678Z,100395.46
2018-01-11T06:04:49.239Z,100394.66
2018-01-11T06:05:51.704Z,100397.97
2018-01-11T06:06:54.163Z,100403.14
2018-01-11T06:07:56.641Z,100401.36
2018-01-11T06:08:59.097Z,100398.78
2018-01-11T06:10:01.561Z,100398.53
2018-01-11T06:11:04.028Z,100394.98
2018-01-11T06:12:06.544Z,100395.52
2018-01-11T06:13:09.032Z,100401.98
2018-01-11T06:14:11.490Z,100402.49
2018-01-11T06:15:14.374Z,100407.93
2018-01-11T06:16:16.865Z,100409.79
2018-01-11T06:17:19.450Z,100411.56
2018-01-11T06:18:21.918Z,100417.46
2018-01-11T06:19:24.378Z,100414.72
2018-01-11T06:20:26.842Z,100423.77
2018-01-11T06:21:29.294Z,100428.29
2018-01-11T06:22:31.754Z,100420.21
2018-01-11T06:23:34.228Z,100421.42
2018-01-11T06:24:36.763Z,100427.56
2018-01-11T06:25:39.232Z,100420.69
2018-01-11T06:26:41.709Z,100426.35
2018-01-11T06:27:44.180Z,100426.35
2018-01-11T06:28:46.666Z,100431.20
2018-01-11T06:29:49.141Z,100427.08
2018-01-11T06:30:51.616Z,100430.80
2018-01-11T06:31:54.092Z,100433.55
2018-01-11T06:32:56.558Z,100439.11
2018-01-11T06:33:59.024Z,100435.80
2018-01-11T06:35:01.492Z,100438.30
2018-01-11T06:36:03.959Z,100439.52
2018-01-11T06:37:06.439Z,100442.50
2018-01-11T06:38:08.936Z,100446.33
2018-01-11T06:39:11.412Z,100447.78
2018-01-11T06:40:13.934Z,100450.53
2018-01-11T06:41:16.394Z,100450.37
2018-01-11T06:42:18.854Z,100447.95
2018-01-11T06:43:21.318Z,100452.06
2018-01-11T06:44:23.776Z,100450.13
2018-01-11T06:45:26.238Z,100448.02
2018-01-11T06:46:28.710Z,100450.77
2018-01-11T06:47:31.162Z,100454.33
2018-01-11T06:48:33.649Z,100451.17
2018-01-11T06:49:36.114Z,100455.53
2018-01-11T06:50:38.580Z,100459.82
2018-01-11T06:51:41.038Z,100465.96
2018-01-11T06:52:43.502Z,100460.30
2018-01-11T06:53:45.972Z,100460.87
2018-01-11T06:54:48.448Z,100457.16
2018-01-11T06:55:50.913Z,100462.08
2018-01-11T06:56:53.392Z,100461.52
2018-01-11T06:57:55.864Z,100463.13
2018-01-11T06:58:58.332Z,100465.88
2018-01-11T07:00:00.788Z,100463.30
2018-01-11T07:01:03.255Z,100465.07
2018-01-11T07:02:05.720Z,100465.40
2018-01-11T07:03:08.183Z,100472.02
2018-01-11T07:04:10.663Z,100467.66
2018-01-11T07:05:13.118Z,100465.88
2018-01-11T07:06:15.592Z,100467.02
2018-01-11T07:07:18.070Z,100478.17
2018-01-11T07:08:20.540Z,100473.80
2018-01-11T07:09:24.791Z,100473.40
2018-01-11T07:10:27.279Z,100475.17
2018-01-11T07:11:29.752Z,100482.05
2018-01-11T07:12:32.218Z,100481.41
2018-01-11T07:13:34.678Z,100485.52
2018-01-11T07:14:37.153Z,100480.11
2018-01-11T07:15:39.627Z,100486.90
2018-01-11T07:16:42.100Z,100483.98
2018-01-11T07:17:44.576Z,100482.86
2018-01-11T07:18:47.064Z,100488.32
2018-01-11T07:19:49.544Z,100490.02
2018-01-11T07:20:52.025Z,100495.19
2018-01-11T07:21:54.504Z,100502.30
2018-01-11T07:22:57.001Z,100494.91
2018-01-11T07:23:59.472Z,100497.14
2018-01-11T07:25:01.941Z,100495.28
2018-01-11T07:26:04.458Z,100495.77
2018-01-11T07:27:06.940Z,100498.43
2018-01-11T07:28:09.416Z,100498.35
2018-01-11T07:29:11.873Z,100495.69
2018-01-11T07:30:14.338Z,100503.77
2018-01-11T07:31:16.812Z,100499.73
2018-01-11T07:32:19.287Z,100502.71
2018-01-11T07:33:21.948Z,100503.52
2018-01-11T07:34:24.406Z,100503.52
2018-01-11T07:35:26.880Z,100505.87
2018-01-11T07:36:29.356Z,100500.38
2018-01-11T07:37:31.839Z,100504.89
2018-01-11T07:38:34.340Z,100503.12
2018-01-11T07:39:36.817Z,100510.95
2018-01-11T07:40:39.278Z,100509.42
2018-01-11T07:41:41.778Z,100515.48
2018-01-11T07:42:44.238Z,100512.89
2018-01-11T07:43:46.722Z,100517.41
2018-01-11T07:44:49.200Z,100512.89
2018-01-11T07:45:51.676Z,100516.77
2018-01-11T07:46:54.138Z,100520.33
2018-01-11T07:47:56.604Z,100522.83
2018-01-11T07:48:59.088Z,100523.39
2018-01-11T07:50:01.557Z,100523.39
2018-01-11T07:51:04.033Z,100522.17
2018-01-11T07:52:06.646Z,100523.71
2018-01-11T07:53:09.114Z,100522.74
2018-01-11T07:54:11.578Z,100522.34
2018-01-11T07:55:14.052Z,100524.52
2018-01-11T07:56:16.528Z,100527.42
2018-01-11T07:57:18.996Z,100527.19
2018-01-11T07:58:21.484Z,100528.72
2018-01-11T07:59:23.964Z,100530.94
2018-01-11T08:00:26.444Z,100534.41
2018-01-11T08:01:28.910Z,100532.55
2018-01-11T08:02:31.366Z,100535.05
2018-01-11T08:03:33.823Z,100539.81
2018-01-11T08:04:36.296Z,100541.50
2018-01-11T08:05:38.750Z,100537.70
2018-01-11T08:06:41.216Z,100544.48
2018-01-11T08:07:43.689Z,100543.43
2018-01-11T08:08:46.150Z,100540.81
2018-01-11T08:09:48.620Z,100547.27
2018-01-11T08:10:51.082Z,100546.88
2018-01-11T08:11:53.534Z,100550.02
2018-01-11T08:12:56.015Z,100554.70
2018-01-11T08:13:58.474Z,100549.94
2018-01-11T08:15:00.944Z,100552.03
2018-01-11T08:16:03.422Z,100550.33
2018-01-11T08:17:05.878Z,100553.55
2018-01-11T08:18:08.363Z,100557.18
2018-01-11T08:19:10.817Z,100558.06
2018-01-11T08:20:13.316Z,100560.31
2018-01-11T08:21:15.760Z,100559.38
2018-01-11T08:22:19.232Z,100557.12
2018-01-11T08:23:21.686Z,100564.30
2018-01-11T08:24:24.142Z,100571.00
2018-01-11T08:25:26.599Z,100568.50
2018-01-11T08:26:29.068Z,100572.37
2018-01-11T08:27:31.539Z,100570.03
2018-01-11T08:28:33.998Z,100575.20
2018-01-11T08:29:36.467Z,100578.35
2018-01-11T08:30:38.943Z,100573.02
2018-01-11T08:31:41.399Z,100582.47
2018-01-11T08:32:43.874Z,100576.98
2018-01-11T08:33:46.336Z,100588.52
2018-01-11T08:34:48.812Z,100587.72
2018-01-11T08:35:51.266Z,100582.22
2018-01-11T08:36:53.722Z,100586.25
2018-01-11T08:37:56.540Z,100590.13
2018-01-11T08:38:59.010Z,100593.59
2018-01-11T08:40:01.483Z,100596.09
2018-01-11T08:41:03.942Z,100599.80
2018-01-11T08:42:06.412Z,100596.49
2018-01-11T08:43:08.866Z,100597.46
2018-01-11T08:44:11.324Z,100592.22
2018-01-11T08:45:13.798Z,100596.17
2018-01-11T08:46:16.258Z,100600.13
2018-01-11T08:47:18.758Z,100600.13
2018-01-11T08:48:21.229Z,100599.33
2018-01-11T08:49:23.682Z,100604.00
2018-01-11T08:50:26.160Z,100601.33
2018-01-11T08:51:28.632Z,100599.55
2018-01-11T08:52:31.101Z,100613.68
2018-01-11T08:53:33.566Z,100615.45
2018-01-11T08:54:36.041Z,100614.08
2018-01-11T08:55:38.513Z,100614.08
2018-01-11T08:56:40.996Z,100613.28
2018-01-11T08:57:43.462Z,100611.91
2018-01-11T08:58:45.932Z,100612.15
2018-01-11T08:59:48.405Z,100609.41
2018-01-11T09:00:50.867Z,100616.52
2018-01-11T09:01:53.322Z,100617.89
2018-01-11T09:02:55.781Z,100616.77
2018-01-11T09:03:58.252Z,100617.16
2018-01-11T09:05:00.753Z,100621.44
2018-01-11T09:06:03.206Z,100623.63
2018-01-11T09:07:05.685Z,100628.70
2018-01-11T09:08:08.174Z,100623.63
2018-01-11T09:09:10.650Z,100620.47
2018-01-11T09:10:13.110Z,100629.52
2018-01-11T09:11:15.578Z,100631.05
2018-01-11T09:12:18.056Z,100633.63
2018-01-11T09:13:20.528Z,100633.39
2018-01-11T09:14:23.015Z,100632.17
2018-01-11T09:15:25.474Z,100633.86
2018-01-11T09:16:27.955Z,100633.45
2018-01-11T09:17:30.461Z,100637.73
2018-01-11T09:18:33.004Z,100640.22
2018-01-11T09:19:35.672Z,100641.19
2018-01-11T09:20:38.155Z,100641.34
2018-01-11T09:21:40.618Z,100639.17
2018-01-11T09:22:43.097Z,100642.47
2018-01-11T09:23:45.554Z,100649.18
2018-01-11T09:24:48.025Z,100645.22
2018-01-11T09:25:50.480Z,100646.72
2018-01-11T09:26:52.952Z,100649.06
2018-01-11T09:27:55.466Z,100653.33
2018-01-11T09:28:57.934Z,100649.94
2018-01-11T09:30:00.397Z,100654.20
2018-01-11T09:31:02.858Z,100654.61
2018-01-11T09:32:05.324Z,100653.80
2018-01-11T09:33:07.778Z,100662.44
2018-01-11T09:34:10.233Z,100656.95
2018-01-11T09:35:12.703Z,100661.47
2018-01-11T09:36:15.170Z,100665.84
2018-01-11T09:37:17.638Z,100671.33
2018-01-11T09:38:20.102Z,100668.17
2018-01-11T09:39:22.578Z,100674.63
2018-01-11T09:40:25.035Z,100673.83
2018-01-11T09:41:27.509Z,100677.94
2018-01-11T09:42:29.992Z,100677.69
2018-01-11T09:43:32.459Z,100677.03
2018-01-11T09:44:34.932Z,100677.35
2018-01-11T09:45:37.438Z,100680.97
2018-01-11T09:46:39.913Z,100676.85
2018-01-11T09:47:42.376Z,100682.91
2018-01-11T09:48:44.831Z,100683.46
2018-01-11T09:49:47.286Z,100680.87
2018-01-11T09:50:49.788Z,100687.08
2018-01-11T09:51:52.256Z,100682.72
2018-01-11T09:52:54.728Z,100682.19
2018-01-11T09:53:57.185Z,100685.09
2018-01-11T09:54:59.651Z,100681.28
2018-01-11T09:56:02.130Z,100682.56
2018-01-11T09:57:04.602Z,100684.25
2018-01-11T09:58:07.092Z,100689.33
2018-01-11T09:59:09.572Z,100684.56
2018-01-11T10:00:12.060Z,100683.75
2018-01-11T10:01:14.513Z,100687.21
2018-01-11T10:02:17.170Z,100685.84
2018-01-11T10:03:19.642Z,100686.00
2018-01-11T10:04:22.124Z,100686.72
2018-01-11T10:05:24.592Z,100691.39
2018-01-11T10:06:27.053Z,100684.37
2018-01-11T10:07:29.558Z,100694.23
2018-01-11T10:08:32.030Z,100686.00
2018-01-11T10:09:34.486Z,100689.70
2018-01-11T10:10:36.944Z,100687.37
2018-01-11T10:11:39.444Z,100690.36
2018-01-11T10:12:41.927Z,100689.80
2018-01-11T10:13:44.459Z,100688.67
2018-01-11T10:14:46.926Z,100692.14
2018-01-11T10:15:49.413Z,100690.36
2018-01-11T10:16:51.892Z,100692.70
2018-01-11T10:17:54.368Z,100687.37
2018-01-11T10:18:56.840Z,100692.77
2018-01-11T10:19:59.327Z,100696.72
2018-01-11T10:21:01.800Z,100688.90
2018-01-11T10:22:04.258Z,100686.81
2018-01-11T10:23:06.729Z,100688.83
2018-01-11T10:24:09.214Z,100689.89
2018-01-11T10:25:11.684Z,100693.55
2018-01-11T10:26:14.164Z,100692.42
2018-01-11T10:27:16.637Z,100694.45
2018-01-11T10:28:19.108Z,100695.50
2018-01-11T10:29:21.562Z,100695.78
2018-01-11T10:30:24.022Z,100700.55
2018-01-11T10:31:26.493Z,100699.99
2018-01-11T10:32:28.963Z,100696.28
2018-01-11T10:33:31.436Z,100702.42
2018-01-11T10:34:33.890Z,100703.64
2018-01-11T10:35:36.364Z,100702.67
2018-01-11T10:36:38.841Z,100698.80
2018-01-11T10:37:41.316Z,100707.44
2018-01-11T10:38:43.786Z,100700.98
2018-01-11T10:39:46.268Z,100703.17
2018-01-11T10:40:48.752Z,100708.25
2018-01-11T10:41:51.236Z,100703.58
2018-01-11T10:42:53.728Z,100704.95
2018-01-11T10:43:56.214Z,100705.35
2018-01-11T10:44:58.678Z,100709.06
2018-01-11T10:46:01.152Z,100705.76
2018-01-11T10:47:03.618Z,100713.02
2018-01-11T10:48:06.088Z,100709.88
2018-01-11T10:49:08.572Z,100715.20
2018-01-11T10:50:11.044Z,100718.36
2018-01-11T10:51:13.581Z,100714.64
2018-01-11T10:52:16.053Z,100710.12
2018-01-11T10:53:18.514Z,100717.79
2018-01-11T10:54:20.989Z,100714.64
2018-01-11T10:55:23.456Z,100716.58
2018-01-11T10:56:25.911Z,100716.98
2018-01-11T10:57:28.370Z,100713.27
2018-01-11T10:58:31.725Z,100711.90
2018-01-11T10:59:34.204Z,100715.05
2018-01-11T11:00:42.278Z,100711.49
2018-01-11T11:01:50.405Z,100710.12
2018-01-11T11:02:52.876Z,100712.86
2018-01-11T11:03:55.330Z,100709.16
2018-01-11T11:04:57.808Z,100711.90
2018-01-11T11:06:00.276Z,100706.41
2018-01-11T11:07:02.752Z,100707.94
2018-01-11T11:08:05.214Z,100709.31
2018-01-11T11:09:07.689Z,100705.59
2018-01-11T11:10:10.162Z,100709.16
2018-01-11T11:11:12.622Z,100707.78
2018-01-11T11:12:15.101Z,100708.75
2018-01-11T11:13:17.566Z,100704.07
2018-01-11T11:14:20.044Z,100708.34
2018-01-11T11:15:22.519Z,100706.41
2018-01-11T11:16:24.992Z,100701.98
2018-01-11T11:17:27.450Z,100707.78
2018-01-11T11:18:29.967Z,100711.86
2018-01-11T11:19:32.394Z,100712.93
2018-01-11T11:20:35.011Z,100708.73
2018-01-11T11:21:37.780Z,100703.46
2018-01-11T11:22:40.266Z,100705.01
2018-01-11T11:23:42.897Z,100702.62
2018-01-11T11:24:45.373Z,100703.83
2018-01-11T11:25:47.966Z,100704.91
2018-01-11T11:26:50.434Z,100703.23
2018-01-11T11:27:52.904Z,100696.16
2018-01-11T11:28:55.384Z,100705.74
2018-01-11T11:29:57.838Z,100704.43
2018-01-11T11:31:00.298Z,100706.08
2018-01-11T11:32:02.758Z,100705.11
2018-01-11T11:33:05.218Z,100713.76
2018-01-11T11:34:07.699Z,100698.05
2018-01-11T11:35:10.154Z,100703.27
2018-01-11T11:36:12.618Z,100706.42
2018-01-11T11:37:15.082Z,100707.63
2018-01-11T11:38:17.542Z,100700.19
2018-01-11T11:39:20.002Z,100703.91
2018-01-11T11:40:22.476Z,100704.95
2018-01-11T11:41:24.948Z,100699.62
2018-01-11T11:42:27.405Z,100702.06
2018-01-11T11:43:30.317Z,100702.84
2018-01-11T11:44:32.906Z,100705.37
2018-01-11T11:45:35.362Z,100712.41
2018-01-11T11:46:37.829Z,100705.52
2018-01-11T11:47:40.303Z,100705.94
2018-01-11T11:48:42.817Z,100707.16
2018-01-11T11:49:45.281Z,100712.91
2018-01-11T11:50:47.752Z,100706.98
2018-01-11T11:51:50.211Z,100706.98
2018-01-11T11:52:52.695Z,100708.36